This is the latest recevied weather packets stored in our database for station/object DM1AS-13. If no packets are shown the sender has not sent any weather packets the latest 10 day(s).
| Time | Temp. | Humidity | Pressure | Rain* | Wind** | Luminosity | Snow |
|---|---|---|---|---|---|---|---|
| 1777762190 | - | - | - | 0 mm | - | - | - |
| 1777761651 | 15° C | 62% | 1017 hPa | 0 mm | - | - | - |
| 1777759254 | 16.11° C | 59% | 1016.9 hPa | 0 mm | - | - | - |
| 1777758845 | 16.11° C | 59% | 1017.2 hPa | 0 mm | - | - | - |
| 1777758763 | 16.11° C | 59% | 1017.2 hPa | 0 mm | - | - | - |
| 1777755992 | 17.22° C | 55% | 1017.7 hPa | 0 mm | - | - | - |
| 1777753424 | - | - | - | 0 mm | - | - | - |
| 1777753036 | - | - | - | 0 mm | - | - | - |
| 1777751445 | - | - | - | 0 mm | - | - | - |
| 1777747353 | - | - | - | 0 mm | - | - | - |
| 1777744995 | 24.44° C | 32% | 1017.8 hPa | 0 mm | - | - | - |
| 1777744740 | 24.44° C | 32% | 1017.8 hPa | 0 mm | - | - | - |
| 1777739378 | 26.67° C | 29% | - | 0 mm | - | - | - |
| 1777738698 | 26.67° C | 30% | 1018.5 hPa | 0 mm | - | - | - |
| 1777735098 | 27.22° C | 30% | 1019.3 hPa | 0 mm | - | - | - |
| 1777734498 | 27.22° C | 30% | 1019.5 hPa | 0 mm | - | - | - |
| 1777733318 | 27.22° C | 30% | 1019.8 hPa | 0 mm | - | - | - |
| 1777732698 | 27.22° C | 30% | 1019.9 hPa | 0 mm | - | - | - |
| 1777732097 | 27.22° C | 28% | 1020.2 hPa | 0 mm | - | - | - |
| 1777727897 | 26.67° C | 32% | 1021.1 hPa | 0 mm | - | - | - |
| 1777723117 | 25.56° C | 33% | 1022.3 hPa | 0 mm | - | - | - |
| 1777722452 | 25.56° C | 34% | 1022.4 hPa | 0 mm | - | - | - |
| 1777721886 | 25.56° C | 34% | 1022.6 hPa | 0 mm | - | - | - |
| 1777721532 | 25.56° C | 36% | 1022.7 hPa | 0 mm | - | - | - |
| 1777717757 | 25° C | 35% | 1023.4 hPa | 0 mm | - | - | - |
* Rain latest hour (hover to see other rain measurements)
** Current wind speed in m/s (hover to see current wind gust speed)